Time;durP1;ratioP1;P1;durP2;ratioP2;P2;SDS_P1;SDS_P2;PMS_P1;PMS_P2;Temp;Humidity;BMP_temperature;BMP_pressure;BME280_temperature;BME280_humidity;BME280_pressure;Samples;Min_cycle;Max_cycle;Signal;HPM_P1;HPM_P2
2024/01/21 00:00:12;;;;;;;36.23;30.83;;;-5.20;99.90;;;;;;5048162;28;20446;-78
2024/01/21 00:02:40;;;;;;;38.63;32.67;;;-5.20;99.90;;;;;;5047269;28;20496;-78
2024/01/21 00:05:07;;;;;;;35.50;30.30;;;-5.20;99.90;;;;;;5036201;28;20442;-78
2024/01/21 00:07:34;;;;;;;40.80;30.13;;;-5.20;99.90;;;;;;5039437;28;20454;-78
2024/01/21 00:10:01;;;;;;;35.93;30.33;;;-5.20;99.90;;;;;;5049526;28;20881;-78
2024/01/21 00:12:27;;;;;;;40.40;29.53;;;-5.10;99.90;;;;;;5043442;28;20443;-78
2024/01/21 00:14:54;;;;;;;34.53;28.33;;;-5.10;99.90;;;;;;5045594;28;20454;-78
2024/01/21 00:17:21;;;;;;;36.10;30.00;;;-5.00;99.90;;;;;;5046548;28;20560;-78
2024/01/21 00:19:49;;;;;;;33.43;28.27;;;-4.90;99.90;;;;;;5046002;28;20449;-78
2024/01/21 00:22:16;;;;;;;35.33;29.10;;;-4.90;99.90;;;;;;5049159;28;20477;-78
2024/01/21 00:24:43;;;;;;;33.67;29.30;;;-4.80;99.90;;;;;;5045719;28;20449;-78
2024/01/21 00:27:09;;;;;;;32.80;28.43;;;-4.70;99.90;;;;;;5043893;28;20446;-78
2024/01/21 00:29:36;;;;;;;34.80;28.97;;;-4.70;99.90;;;;;;5033147;28;20436;-78
2024/01/21 00:32:04;;;;;;;35.90;29.40;;;-4.80;99.90;;;;;;5046389;28;20521;-78
2024/01/21 00:34:31;;;;;;;36.10;28.20;;;-4.80;99.90;;;;;;5045440;28;20489;-78
2024/01/21 00:36:59;;;;;;;36.27;27.90;;;-4.90;99.90;;;;;;5047967;28;20876;-78
2024/01/21 00:39:26;;;;;;;33.50;27.57;;;-5.00;99.90;;;;;;5045992;28;20977;-78
2024/01/21 00:41:53;;;;;;;38.70;29.67;;;-5.00;99.90;;;;;;5046417;28;20967;-78
2024/01/21 00:44:20;;;;;;;29.47;26.33;;;-5.00;99.90;;;;;;5040342;28;20439;-78
2024/01/21 00:46:47;;;;;;;32.77;28.43;;;-5.00;99.90;;;;;;5048788;28;20501;-78
2024/01/21 00:49:14;;;;;;;34.50;28.40;;;-5.00;99.90;;;;;;5042758;28;20817;-78
2024/01/21 00:51:41;;;;;;;33.83;28.27;;;-4.90;99.90;;;;;;5050103;28;20448;-78
2024/01/21 00:54:09;;;;;;;33.40;29.80;;;-4.80;99.90;;;;;;5041932;28;20509;-78
2024/01/21 00:56:36;;;;;;;35.47;28.30;;;-4.90;99.90;;;;;;5050772;28;20900;-78
2024/01/21 00:59:03;;;;;;;32.67;28.17;;;-4.90;99.90;;;;;;5043560;28;20524;-78
2024/01/21 01:01:30;;;;;;;32.03;27.97;;;-5.00;99.90;;;;;;5035790;28;20446;-78
2024/01/21 01:03:57;;;;;;;34.40;27.80;;;-5.00;99.90;;;;;;5047026;28;20442;-78
2024/01/21 01:06:23;;;;;;;30.87;27.50;;;-5.00;99.90;;;;;;5043651;28;20504;-78
2024/01/21 01:08:50;;;;;;;33.13;28.30;;;-5.10;99.90;;;;;;5045161;28;20478;-78
2024/01/21 01:11:20;;;;;;;34.77;29.63;;;-5.00;99.90;;;;;;5042597;28;20439;-79
2024/01/21 01:13:47;;;;;;;34.93;29.40;;;-5.00;99.90;;;;;;5050349;28;20532;-78
2024/01/21 01:16:14;;;;;;;33.87;28.53;;;-5.00;99.90;;;;;;5043147;28;20965;-78
2024/01/21 01:18:41;;;;;;;36.03;29.50;;;-4.90;99.90;;;;;;5038210;28;20908;-78
2024/01/21 01:21:10;;;;;;;36.87;29.90;;;-4.90;99.90;;;;;;5037077;28;20452;-78
2024/01/21 01:23:36;;;;;;;33.57;28.37;;;-4.90;99.90;;;;;;5037598;28;20456;-78
2024/01/21 01:26:03;;;;;;;33.50;28.67;;;-4.80;99.90;;;;;;5034913;28;20435;-78
2024/01/21 01:28:31;;;;;;;34.70;28.67;;;-4.80;99.90;;;;;;5035114;28;20459;-78
2024/01/21 01:30:58;;;;;;;35.00;28.50;;;-4.80;99.90;;;;;;5042899;28;20470;-78
2024/01/21 01:33:25;;;;;;;32.03;28.53;;;-4.90;99.90;;;;;;5037965;28;20446;-78
2024/01/21 01:35:52;;;;;;;32.27;28.77;;;-4.90;99.90;;;;;;5042374;28;20441;-78
2024/01/21 01:38:18;;;;;;;35.53;27.73;;;-4.90;99.90;;;;;;5041872;28;20521;-78
2024/01/21 01:40:45;;;;;;;35.00;30.00;;;-4.80;99.90;;;;;;5044877;28;20442;-78
2024/01/21 01:43:12;;;;;;;35.80;28.70;;;-4.70;99.90;;;;;;5036094;28;20447;-78
2024/01/21 01:45:40;;;;;;;34.80;29.83;;;-4.70;99.90;;;;;;5034602;28;20442;-78
2024/01/21 01:48:08;;;;;;;31.53;28.13;;;-4.60;99.90;;;;;;5037677;28;20454;-78
2024/01/21 01:50:35;;;;;;;34.93;29.33;;;-4.60;99.90;;;;;;5041470;28;20520;-78
2024/01/21 01:53:02;;;;;;;32.37;28.47;;;-4.60;99.90;;;;;;5042167;28;20465;-78
2024/01/21 01:55:29;;;;;;;32.50;28.87;;;-4.60;99.90;;;;;;5042165;28;20454;-78
2024/01/21 01:57:56;;;;;;;33.37;28.43;;;-4.60;99.90;;;;;;5048268;28;20885;-78
2024/01/21 02:00:23;;;;;;;32.83;28.40;;;-4.60;99.90;;;;;;5045235;28;20461;-78
2024/01/21 02:02:52;;;;;;;33.97;29.33;;;-4.50;99.90;;;;;;5047775;28;20473;-78
2024/01/21 02:05:19;;;;;;;33.63;29.00;;;-4.50;99.90;;;;;;5045210;28;20422;-78
2024/01/21 02:07:47;;;;;;;32.53;29.07;;;-4.40;99.90;;;;;;5041963;28;20497;-78
2024/01/21 02:10:14;;;;;;;33.50;29.87;;;-4.40;99.90;;;;;;5042187;28;20500;-78
2024/01/21 02:12:44;;;;;;;33.77;29.40;;;-4.50;99.90;;;;;;5039207;28;20829;-78
2024/01/21 02:15:12;;;;;;;35.93;27.77;;;-4.50;99.90;;;;;;5042700;28;20456;-78
2024/01/21 02:17:38;;;;;;;32.23;28.07;;;-4.60;99.90;;;;;;5043204;28;20845;-78
2024/01/21 02:20:09;;;;;;;36.77;30.33;;;-4.60;99.90;;;;;;5036510;28;20506;-77
2024/01/21 02:22:39;;;;;;;35.17;28.10;;;-4.70;99.90;;;;;;5031684;28;20444;-78
2024/01/21 02:25:09;;;;;;;31.60;28.33;;;-4.70;99.90;;;;;;5037607;28;20525;-77
2024/01/21 02:27:36;;;;;;;31.80;27.83;;;-4.70;99.90;;;;;;5043322;28;20471;-78
2024/01/21 02:30:04;;;;;;;34.37;28.93;;;-4.80;99.90;;;;;;5045468;28;20963;-77
2024/01/21 02:32:31;;;;;;;32.40;28.47;;;-4.90;99.90;;;;;;5046971;28;20605;-78
2024/01/21 02:34:58;;;;;;;36.60;29.57;;;-4.90;99.90;;;;;;5039116;28;20445;-78
2024/01/21 02:37:24;;;;;;;32.87;29.37;;;-4.90;99.90;;;;;;5039668;28;20517;-78
2024/01/21 02:39:51;;;;;;;32.47;29.07;;;-5.00;99.90;;;;;;5043404;28;20458;-78
2024/01/21 02:42:20;;;;;;;35.73;29.37;;;-5.10;99.90;;;;;;5036314;28;20492;-78
2024/01/21 02:44:49;;;;;;;31.73;28.33;;;-5.10;99.90;;;;;;5049505;28;20807;-78
2024/01/21 02:47:16;;;;;;;33.60;28.37;;;-5.20;99.90;;;;;;5038764;28;20940;-78
2024/01/21 02:49:43;;;;;;;32.87;27.77;;;-5.20;99.90;;;;;;5045657;28;20449;-77
2024/01/21 02:52:10;;;;;;;31.93;27.77;;;-5.30;99.90;;;;;;5047998;28;20963;-78
2024/01/21 02:54:37;;;;;;;31.30;27.93;;;-5.30;99.90;;;;;;5049480;28;20502;-78
2024/01/21 02:57:04;;;;;;;31.90;28.50;;;-5.30;99.90;;;;;;5046585;28;20441;-78
2024/01/21 02:59:32;;;;;;;31.73;26.50;;;-5.30;99.90;;;;;;5048014;28;21032;-78
2024/01/21 03:01:58;;;;;;;31.27;27.80;;;-5.40;99.90;;;;;;5045644;28;20450;-78
2024/01/21 03:04:25;;;;;;;31.20;27.83;;;-5.40;99.90;;;;;;5041880;28;20485;-78
2024/01/21 03:06:52;;;;;;;32.97;28.10;;;-5.30;99.90;;;;;;5048134;28;20445;-77
2024/01/21 03:09:19;;;;;;;28.77;25.80;;;-5.40;99.90;;;;;;5050496;28;20497;-78
2024/01/21 03:11:45;;;;;;;30.97;27.27;;;-5.40;99.90;;;;;;5045243;28;20450;-77
2024/01/21 03:14:13;;;;;;;29.33;26.33;;;-5.30;99.90;;;;;;5044287;28;20884;-78
2024/01/21 03:16:41;;;;;;;31.37;27.37;;;-5.20;99.90;;;;;;5045955;28;20530;-78
2024/01/21 03:19:08;;;;;;;35.83;29.57;;;-5.20;99.90;;;;;;5048410;28;20599;-78
2024/01/21 03:21:34;;;;;;;36.80;28.67;;;-5.10;99.90;;;;;;5049136;28;20485;-78
2024/01/21 03:24:01;;;;;;;34.23;28.57;;;-5.10;99.90;;;;;;5047278;28;20445;-78
2024/01/21 03:26:28;;;;;;;30.97;27.50;;;-5.10;99.90;;;;;;5041419;28;20468;-78
2024/01/21 03:28:55;;;;;;;29.37;26.13;;;-5.10;99.90;;;;;;5047924;28;20500;-78
2024/01/21 03:31:22;;;;;;;29.90;26.00;;;-5.10;99.90;;;;;;5042838;28;20445;-78
2024/01/21 03:33:50;;;;;;;29.17;26.07;;;-5.10;99.90;;;;;;5048919;28;20453;-78
2024/01/21 03:36:16;;;;;;;30.70;27.53;;;-5.20;99.90;;;;;;5045007;28;20515;-78
2024/01/21 03:38:44;;;;;;;29.57;26.37;;;-5.20;99.90;;;;;;5042190;28;20536;-78
2024/01/21 03:41:11;;;;;;;28.87;25.83;;;-5.30;99.90;;;;;;5039542;28;20834;-78
2024/01/21 03:43:38;;;;;;;28.60;25.70;;;-5.40;99.90;;;;;;5047543;28;20447;-78
2024/01/21 03:46:05;;;;;;;30.37;26.90;;;-5.40;99.90;;;;;;5044569;28;20496;-78
2024/01/21 03:48:32;;;;;;;33.13;27.63;;;-5.50;99.90;;;;;;5046118;28;20809;-77
2024/01/21 03:51:00;;;;;;;32.27;27.30;;;-5.50;99.90;;;;;;5050889;28;20437;-78
2024/01/21 03:53:27;;;;;;;31.60;27.03;;;-5.50;99.90;;;;;;5047902;28;20461;-78
2024/01/21 03:55:54;;;;;;;29.90;26.70;;;-5.50;99.90;;;;;;5051703;28;20429;-78
2024/01/21 03:58:20;;;;;;;30.33;26.03;;;-5.40;99.90;;;;;;5047519;28;20524;-77
2024/01/21 04:00:47;;;;;;;30.73;27.50;;;-5.40;99.90;;;;;;5042897;28;20444;-78
2024/01/21 04:03:14;;;;;;;32.87;26.10;;;-5.40;99.90;;;;;;5045665;28;20529;-78
2024/01/21 04:05:41;;;;;;;27.80;24.80;;;-5.30;99.90;;;;;;5045965;28;20437;-78
2024/01/21 04:08:09;;;;;;;26.73;23.93;;;-5.20;99.90;;;;;;5050126;28;20454;-78
2024/01/21 04:10:36;;;;;;;28.73;25.63;;;-5.30;99.90;;;;;;5046336;28;20473;-78
2024/01/21 04:13:03;;;;;;;30.67;25.70;;;-5.30;99.90;;;;;;5038772;28;20496;-77
2024/01/21 04:15:29;;;;;;;29.00;25.83;;;-5.30;99.90;;;;;;5027825;28;21207;-78
2024/01/21 04:17:56;;;;;;;29.07;25.67;;;-5.20;99.90;;;;;;5037242;28;20992;-78
2024/01/21 04:20:23;;;;;;;31.47;26.70;;;-5.10;99.90;;;;;;5048360;28;20450;-78
2024/01/21 04:22:50;;;;;;;31.97;27.37;;;-5.10;99.90;;;;;;5035422;28;20447;-77
2024/01/21 04:25:18;;;;;;;29.67;26.50;;;-5.10;99.90;;;;;;5044195;28;20470;-83
2024/01/21 04:27:45;;;;;;;28.23;24.93;;;-5.00;99.90;;;;;;5046157;28;20507;-78
2024/01/21 04:30:12;;;;;;;28.47;24.90;;;-5.00;99.90;;;;;;5041617;28;20504;-77
2024/01/21 04:32:39;;;;;;;29.60;26.53;;;-5.00;99.90;;;;;;5046151;28;20496;-77
2024/01/21 04:35:06;;;;;;;29.50;26.10;;;-5.00;99.90;;;;;;5036944;28;20438;-78
2024/01/21 04:37:33;;;;;;;30.63;27.33;;;-5.00;99.90;;;;;;5044476;28;20534;-79
2024/01/21 04:40:03;;;;;;;29.20;26.03;;;-5.00;99.90;;;;;;5051513;28;20440;-79
2024/01/21 04:42:32;;;;;;;31.23;27.53;;;-5.00;99.90;;;;;;5037608;28;20857;-79
2024/01/21 04:44:59;;;;;;;33.10;25.83;;;-4.90;99.90;;;;;;5043363;28;20507;-79
2024/01/21 04:47:25;;;;;;;30.03;26.60;;;-4.90;99.90;;;;;;5047421;28;20442;-78
2024/01/21 04:49:52;;;;;;;32.73;28.13;;;-4.90;99.90;;;;;;5039845;28;20838;-79
2024/01/21 04:52:21;;;;;;;32.53;28.00;;;-4.90;99.90;;;;;;5039344;28;20465;-78
2024/01/21 04:54:48;;;;;;;31.33;27.97;;;-4.90;99.90;;;;;;5047710;28;20453;-79
2024/01/21 04:57:15;;;;;;;34.03;28.57;;;-4.90;99.90;;;;;;5044358;28;20480;-77
2024/01/21 04:59:43;;;;;;;33.30;27.37;;;-4.90;99.90;;;;;;5043205;28;20992;-79
2024/01/21 05:02:10;;;;;;;31.83;27.10;;;-4.90;99.90;;;;;;5046127;28;20461;-82
2024/01/21 05:04:37;;;;;;;27.93;25.13;;;-4.90;99.90;;;;;;5026820;28;20525;-78
2024/01/21 05:07:04;;;;;;;33.77;27.70;;;-4.90;99.90;;;;;;5028383;28;20441;-78
2024/01/21 05:09:31;;;;;;;32.67;27.73;;;-5.00;99.90;;;;;;5032681;28;20454;-79
2024/01/21 05:11:58;;;;;;;30.60;27.10;;;-5.00;99.90;;;;;;5033105;28;20500;-78
2024/01/21 05:14:24;;;;;;;32.30;26.30;;;-5.00;99.90;;;;;;5031528;28;20481;-79
2024/01/21 05:16:52;;;;;;;30.67;27.37;;;-5.10;99.90;;;;;;5031836;28;20475;-79
2024/01/21 05:19:19;;;;;;;29.27;26.07;;;-5.10;99.90;;;;;;5032795;28;20532;-79
2024/01/21 05:21:46;;;;;;;33.53;26.17;;;-5.10;99.90;;;;;;5031450;28;20447;-78
2024/01/21 05:24:13;;;;;;;27.60;24.70;;;-5.10;99.90;;;;;;5031470;28;20455;-79
2024/01/21 05:26:44;;;;;;;28.27;25.27;;;-5.20;99.90;;;;;;5031320;28;20449;-78
2024/01/21 05:29:10;;;;;;;27.30;24.53;;;-5.20;99.90;;;;;;5031242;28;20565;-78
2024/01/21 05:31:37;;;;;;;27.20;24.27;;;-5.20;99.90;;;;;;5031424;28;20447;-79
2024/01/21 05:34:05;;;;;;;28.50;24.40;;;-5.10;99.90;;;;;;5038637;28;20442;-78
2024/01/21 05:36:32;;;;;;;26.53;23.47;;;-5.10;99.90;;;;;;5048765;28;20461;-79
2024/01/21 05:38:59;;;;;;;27.17;24.23;;;-5.10;99.90;;;;;;5051445;28;20913;-78
2024/01/21 05:41:28;;;;;;;29.27;25.80;;;-5.10;99.90;;;;;;5043138;28;20590;-80
2024/01/21 05:43:55;;;;;;;26.70;23.87;;;-5.00;99.90;;;;;;5038758;28;20451;-79
2024/01/21 05:46:22;;;;;;;27.73;24.60;;;-4.90;99.90;;;;;;5024906;28;20452;-80
2024/01/21 05:48:49;;;;;;;28.00;24.00;;;-4.90;99.90;;;;;;5028957;28;20471;-80
2024/01/21 05:51:17;;;;;;;26.27;23.57;;;-4.80;99.90;;;;;;5030138;28;20458;-81
2024/01/21 05:53:44;;;;;;;30.07;24.80;;;-4.80;99.90;;;;;;5045949;28;20441;-81
2024/01/21 05:56:11;;;;;;;26.87;24.10;;;-4.70;99.90;;;;;;5024694;28;20454;-81
2024/01/21 05:58:38;;;;;;;24.80;22.43;;;-4.70;99.90;;;;;;5032209;28;20514;-81
2024/01/21 06:01:05;;;;;;;25.77;23.17;;;-4.70;99.90;;;;;;5047116;28;20452;-80
2024/01/21 06:03:32;;;;;;;26.07;22.93;;;-4.70;99.90;;;;;;5031393;28;20473;-80
2024/01/21 06:05:59;;;;;;;24.00;21.77;;;-4.70;99.90;;;;;;5043401;28;20496;-81
2024/01/21 06:08:28;;;;;;;24.37;21.73;;;-4.70;99.90;;;;;;5037298;28;20996;-80
2024/01/21 06:10:55;;;;;;;25.00;22.23;;;-4.80;99.90;;;;;;5042199;28;20541;-79
2024/01/21 06:13:22;;;;;;;25.47;22.97;;;-4.80;99.90;;;;;;5027517;28;20443;-80
2024/01/21 06:15:48;;;;;;;25.90;23.20;;;-4.70;99.90;;;;;;5025978;28;20490;-80
2024/01/21 06:18:15;;;;;;;25.03;22.50;;;-4.70;99.90;;;;;;5029380;28;20992;-79
2024/01/21 06:20:42;;;;;;;25.57;22.90;;;-4.80;99.90;;;;;;5031943;28;20881;-80
2024/01/21 06:23:09;;;;;;;25.60;23.03;;;-4.90;99.90;;;;;;5036859;28;20479;-79
2024/01/21 06:25:37;;;;;;;26.10;23.43;;;-4.90;99.90;;;;;;5031500;28;20462;-78
2024/01/21 06:28:04;;;;;;;28.17;23.20;;;-4.90;99.90;;;;;;5049191;28;20465;-80
2024/01/21 06:30:30;;;;;;;24.53;22.03;;;-4.90;99.90;;;;;;5027420;28;20467;-79
2024/01/21 06:32:57;;;;;;;24.07;21.60;;;-4.90;99.90;;;;;;5041930;28;20884;-79
2024/01/21 06:35:24;;;;;;;25.20;22.67;;;-4.80;99.90;;;;;;5046984;28;20585;-79
2024/01/21 06:37:51;;;;;;;25.40;22.90;;;-4.80;99.90;;;;;;5040668;28;20466;-79
2024/01/21 06:40:20;;;;;;;25.10;22.50;;;-4.80;99.90;;;;;;5031193;28;20477;-80
2024/01/21 06:43:01;;;;;;;23.57;21.17;;;-4.80;99.90;;;;;;5043237;28;20442;-85
2024/01/21 06:45:28;;;;;;;26.10;23.47;;;-4.80;99.90;;;;;;5020005;28;20467;-80
2024/01/21 06:47:55;;;;;;;27.30;23.77;;;-4.90;99.90;;;;;;5029916;28;20524;-79
2024/01/21 06:50:22;;;;;;;27.37;23.87;;;-5.00;99.90;;;;;;5043525;28;20491;-79
2024/01/21 06:52:49;;;;;;;27.03;24.23;;;-4.90;99.90;;;;;;5041162;28;20443;-79
2024/01/21 06:55:17;;;;;;;26.47;23.60;;;-5.00;99.90;;;;;;5035678;28;20545;-79
2024/01/21 06:57:44;;;;;;;26.77;23.87;;;-5.00;99.90;;;;;;5043023;28;20466;-79
2024/01/21 07:00:14;;;;;;;26.07;23.33;;;-5.00;99.90;;;;;;5037953;28;20467;-79
2024/01/21 07:02:41;;;;;;;26.63;23.37;;;-5.10;99.90;;;;;;5039447;28;20586;-79
2024/01/21 07:05:09;;;;;;;26.20;23.50;;;-5.10;99.90;;;;;;5044772;28;20797;-79
2024/01/21 07:07:36;;;;;;;24.57;22.07;;;-5.10;99.90;;;;;;5047441;28;20458;-79
2024/01/21 07:10:03;;;;;;;24.53;21.87;;;-5.20;99.90;;;;;;5032892;28;20569;-79
2024/01/21 07:12:30;;;;;;;28.13;22.77;;;-5.20;99.90;;;;;;5036227;28;20589;-79
2024/01/21 07:14:57;;;;;;;26.20;23.40;;;-5.20;99.90;;;;;;5043979;28;20450;-79
2024/01/21 07:17:25;;;;;;;24.67;22.00;;;-5.20;99.90;;;;;;5042344;28;20986;-79
2024/01/21 07:19:53;;;;;;;24.93;22.43;;;-5.20;99.90;;;;;;5044010;28;21069;-79
2024/01/21 07:22:20;;;;;;;25.40;22.80;;;-5.30;99.90;;;;;;5044048;28;20967;-79
2024/01/21 07:24:47;;;;;;;25.43;22.87;;;-5.30;99.90;;;;;;5034691;28;20885;-79
2024/01/21 07:27:14;;;;;;;26.70;23.37;;;-5.40;99.90;;;;;;5045306;28;20441;-79
2024/01/21 07:29:41;;;;;;;26.63;23.73;;;-5.40;99.90;;;;;;5047782;28;20462;-79
2024/01/21 07:32:09;;;;;;;27.50;23.77;;;-5.30;99.90;;;;;;5043807;28;20434;-79
2024/01/21 07:34:37;;;;;;;28.60;25.07;;;-5.20;99.90;;;;;;5050066;28;20448;-79
2024/01/21 07:37:03;;;;;;;27.30;24.43;;;-5.20;99.90;;;;;;5037516;28;20442;-79
2024/01/21 07:39:30;;;;;;;27.40;23.40;;;-5.10;99.90;;;;;;5050544;28;20469;-79
2024/01/21 07:41:57;;;;;;;27.37;23.63;;;-5.00;99.90;;;;;;5047111;28;20431;-80
2024/01/21 07:44:24;;;;;;;25.73;23.03;;;-5.00;99.90;;;;;;5044626;28;20454;-79
2024/01/21 07:46:50;;;;;;;27.00;23.50;;;-4.90;99.90;;;;;;5044651;28;20453;-79
2024/01/21 07:49:17;;;;;;;28.60;22.57;;;-4.90;99.90;;;;;;5050777;28;20988;-79
2024/01/21 07:51:46;;;;;;;24.73;22.10;;;-4.90;99.90;;;;;;5048344;28;20888;-79
2024/01/21 07:54:13;;;;;;;25.07;22.50;;;-4.80;99.90;;;;;;5034757;28;20441;-79
2024/01/21 07:56:40;;;;;;;23.83;21.53;;;-4.70;99.90;;;;;;5049563;28;20459;-79
2024/01/21 07:59:06;;;;;;;24.07;21.43;;;-4.70;99.90;;;;;;5044845;28;20547;-79
2024/01/21 08:01:33;;;;;;;24.57;22.30;;;-4.60;99.90;;;;;;5046012;28;20434;-79
2024/01/21 08:04:00;;;;;;;25.70;23.17;;;-4.50;99.90;;;;;;5046453;28;20474;-79
2024/01/21 08:06:27;;;;;;;24.93;22.47;;;-4.40;99.90;;;;;;5046045;28;20442;-79
2024/01/21 08:08:55;;;;;;;43.30;32.47;;;-4.20;99.90;;;;;;5047690;28;20465;-78
2024/01/21 08:11:21;;;;;;;44.13;32.70;;;-4.00;99.90;;;;;;5045588;28;20437;-79
2024/01/21 08:13:48;;;;;;;29.07;25.00;;;-3.80;99.90;;;;;;5043942;28;20499;-79
2024/01/21 08:16:15;;;;;;;27.17;24.03;;;-3.60;99.90;;;;;;5045811;28;20429;-79
2024/01/21 08:18:42;;;;;;;26.97;24.23;;;-3.40;99.90;;;;;;5048677;28;20485;-79
2024/01/21 08:21:09;;;;;;;26.83;24.07;;;-3.30;99.90;;;;;;5045730;28;20460;-79
2024/01/21 08:23:36;;;;;;;25.13;22.83;;;-3.00;99.90;;;;;;5030405;28;20453;-79
2024/01/21 08:26:05;;;;;;;23.93;21.70;;;-2.80;99.90;;;;;;5051112;28;20453;-79
2024/01/21 08:28:32;;;;;;;23.27;20.87;;;-2.60;99.90;;;;;;5044761;28;20486;-79
2024/01/21 08:30:59;;;;;;;24.57;22.27;;;-2.40;99.90;;;;;;5051053;28;20430;-79
2024/01/21 08:33:26;;;;;;;22.10;20.00;;;-2.20;99.90;;;;;;5037802;28;20439;-79
2024/01/21 08:35:53;;;;;;;23.20;20.90;;;-2.10;99.90;;;;;;5041359;28;20509;-79
2024/01/21 08:38:19;;;;;;;22.33;20.33;;;-2.00;99.90;;;;;;5049451;28;20859;-79
2024/01/21 08:40:46;;;;;;;21.03;19.30;;;-1.80;99.90;;;;;;5033605;28;20489;-78
2024/01/21 08:43:15;;;;;;;21.40;19.60;;;-1.70;99.90;;;;;;5043197;28;20474;-78
2024/01/21 08:45:41;;;;;;;20.23;18.43;;;-1.60;99.90;;;;;;5043859;28;20477;-81
2024/01/21 08:48:08;;;;;;;21.37;19.43;;;-1.50;99.90;;;;;;5031317;28;20463;-81
2024/01/21 08:50:35;;;;;;;21.83;19.83;;;-1.40;99.90;;;;;;5030311;28;20476;-82
2024/01/21 08:53:02;;;;;;;22.43;20.43;;;-1.40;99.90;;;;;;5028103;28;20452;-83
2024/01/21 08:55:29;;;;;;;22.13;20.10;;;-1.30;99.90;;;;;;5037398;28;20443;-82
2024/01/21 08:57:56;;;;;;;23.63;21.27;;;-1.40;99.90;;;;;;5033614;28;20463;-82
2024/01/21 09:00:24;;;;;;;24.33;22.03;;;-1.30;99.90;;;;;;5041100;28;20479;-82
2024/01/21 09:02:51;;;;;;;25.30;23.00;;;-1.20;99.90;;;;;;5042568;28;20468;-81
2024/01/21 09:05:18;;;;;;;23.47;21.37;;;-1.00;99.90;;;;;;5043794;28;20547;-77
2024/01/21 09:07:44;;;;;;;21.30;19.47;;;-1.00;99.90;;;;;;5030235;28;20451;-78
2024/01/21 09:10:12;;;;;;;21.37;19.63;;;-0.80;99.90;;;;;;5032038;28;20859;-79
2024/01/21 09:12:39;;;;;;;19.90;18.40;;;-0.70;99.90;;;;;;5033758;28;20448;-78
2024/01/21 09:15:08;;;;;;;20.73;18.93;;;-0.60;99.90;;;;;;5034868;28;20445;-78
2024/01/21 09:17:36;;;;;;;21.57;19.57;;;-0.50;99.90;;;;;;5044502;28;20495;-78
2024/01/21 09:20:03;;;;;;;21.30;19.40;;;-0.50;99.90;;;;;;5042423;28;20469;-78
2024/01/21 09:22:30;;;;;;;22.27;20.23;;;-0.40;99.90;;;;;;5047206;28;20450;-78
2024/01/21 09:24:57;;;;;;;23.47;21.33;;;-0.50;99.90;;;;;;5041165;28;20461;-78
2024/01/21 09:27:24;;;;;;;25.90;22.87;;;-0.50;99.90;;;;;;5042590;28;20831;-82
2024/01/21 09:29:51;;;;;;;23.73;21.60;;;-0.50;99.90;;;;;;5033849;28;20487;-81
2024/01/21 09:32:18;;;;;;;21.83;19.90;;;-0.50;99.90;;;;;;5036031;28;20447;-78
2024/01/21 09:34:46;;;;;;;21.33;19.47;;;-0.50;99.90;;;;;;5032523;28;20442;-78
2024/01/21 09:37:12;;;;;;;20.30;18.60;;;-0.50;99.90;;;;;;5035719;28;20450;-78
2024/01/21 09:39:39;;;;;;;21.77;19.93;;;-0.50;99.90;;;;;;5042695;28;20995;-78
2024/01/21 09:42:08;;;;;;;22.40;20.40;;;-0.60;99.90;;;;;;5040620;28;20466;-78
2024/01/21 09:44:35;;;;;;;21.57;19.60;;;-0.60;99.90;;;;;;5036780;28;20451;-78
2024/01/21 09:47:02;;;;;;;22.80;20.63;;;-0.60;99.90;;;;;;5036832;28;20446;-80
2024/01/21 09:49:31;;;;;;;21.43;19.63;;;-0.50;99.90;;;;;;5043781;28;20482;-81
2024/01/21 09:52:01;;;;;;;23.03;20.83;;;-0.50;99.90;;;;;;5037226;28;20453;-77
2024/01/21 09:54:27;;;;;;;21.10;19.20;;;-0.50;99.90;;;;;;5049419;28;20986;-77
2024/01/21 09:56:54;;;;;;;21.87;19.97;;;-0.40;99.90;;;;;;5035652;28;20827;-78
2024/01/21 09:59:21;;;;;;;20.70;18.97;;;-0.20;99.90;;;;;;5027218;28;20476;-78
2024/01/21 10:01:49;;;;;;;21.20;19.40;;;0.00;99.90;;;;;;5030777;28;20447;-78
2024/01/21 10:04:19;;;;;;;20.97;19.13;;;0.10;99.90;;;;;;5030293;28;21022;-78
2024/01/21 10:06:46;;;;;;;22.10;20.10;;;0.10;99.90;;;;;;5028180;28;20453;-78
2024/01/21 10:09:17;;;;;;;22.87;20.67;;;0.20;99.90;;;;;;5033957;28;20228;-79
2024/01/21 10:11:45;;;;;;;21.37;19.43;;;0.30;99.90;;;;;;5041676;28;20457;-77
2024/01/21 10:14:11;;;;;;;21.20;19.40;;;0.30;99.90;;;;;;5035436;28;20561;-76
2024/01/21 10:16:42;;;;;;;20.33;18.53;;;0.40;99.90;;;;;;5031103;28;20442;-78
2024/01/21 10:19:12;;;;;;;20.57;18.90;;;0.50;99.90;;;;;;5032296;28;20509;-79
2024/01/21 10:21:39;;;;;;;20.83;19.13;;;0.60;99.90;;;;;;5036159;28;20196;-78
2024/01/21 10:24:07;;;;;;;21.37;19.47;;;0.70;99.90;;;;;;5047965;28;20226;-78
2024/01/21 10:26:36;;;;;;;20.20;18.37;;;0.70;99.90;;;;;;5043269;28;20953;-81
2024/01/21 10:29:03;;;;;;;19.53;17.83;;;0.80;99.90;;;;;;5041166;28;20278;-81
2024/01/21 10:31:33;;;;;;;20.07;18.47;;;0.90;99.90;;;;;;5036890;28;20210;-81
2024/01/21 10:34:02;;;;;;;20.97;19.03;;;1.00;99.90;;;;;;5033217;28;20207;-82
2024/01/21 10:36:32;;;;;;;20.97;19.17;;;1.20;99.90;;;;;;5030103;28;20224;-77
2024/01/21 10:39:02;;;;;;;20.43;18.60;;;1.20;99.90;;;;;;5021263;28;20224;-78
2024/01/21 10:41:31;;;;;;;19.27;17.57;;;1.20;99.90;;;;;;5022888;28;20285;-80
2024/01/21 10:44:02;;;;;;;19.63;17.97;;;1.30;99.90;;;;;;5021202;28;20207;-77
2024/01/21 10:46:31;;;;;;;21.07;19.30;;;1.40;99.90;;;;;;5031751;28;20245;-79
2024/01/21 10:48:59;;;;;;;20.70;18.90;;;1.50;99.90;;;;;;5027816;28;20274;-78
2024/01/21 10:51:27;;;;;;;20.30;18.40;;;1.60;99.90;;;;;;5028170;28;20211;-80
2024/01/21 10:53:56;;;;;;;20.30;18.40;;;1.80;99.90;;;;;;5027588;28;20698;-80
2024/01/21 10:56:25;;;;;;;22.13;20.10;;;1.90;99.90;;;;;;5026732;28;20207;-80
2024/01/21 10:58:53;;;;;;;21.87;19.90;;;2.10;99.90;;;;;;5028970;28;20266;-80
2024/01/21 11:01:23;;;;;;;21.50;19.50;;;2.20;99.90;;;;;;5031878;28;20242;-79
2024/01/21 11:04:02;;;;;;;21.70;19.80;;;2.30;99.90;;;;;;5035220;28;20254;-77
2024/01/21 11:06:29;;;;;;;20.60;18.83;;;2.40;99.90;;;;;;5041507;28;20207;-78
2024/01/21 11:09:00;;;;;;;21.03;19.23;;;2.50;99.90;;;;;;5045636;28;20622;-80
2024/01/21 11:11:27;;;;;;;22.40;20.40;;;2.50;99.90;;;;;;5033755;28;20192;-80
2024/01/21 11:13:54;;;;;;;20.43;18.73;;;2.50;99.90;;;;;;5046052;28;20200;-79
2024/01/21 11:16:38;;;;;;;21.50;19.67;;;2.70;99.90;;;;;;5034847;28;20196;-78
2024/01/21 11:19:06;;;;;;;22.00;20.10;;;2.80;99.90;;;;;;5035455;28;20231;-78
2024/01/21 11:21:34;;;;;;;21.73;19.83;;;2.90;99.90;;;;;;5040507;28;20240;-78
2024/01/21 11:24:04;;;;;;;21.43;19.63;;;3.00;99.90;;;;;;5047788;28;20274;-77
2024/01/21 11:26:31;;;;;;;21.70;19.80;;;3.10;99.90;;;;;;5042806;28;20285;-79
2024/01/21 11:28:59;;;;;;;20.73;18.93;;;3.20;99.90;;;;;;5038089;28;20229;-78
2024/01/21 11:31:26;;;;;;;20.87;19.10;;;3.30;99.90;;;;;;5046724;28;20287;-78
2024/01/21 11:34:05;;;;;;;20.70;18.80;;;3.50;99.90;;;;;;5039299;28;20221;-78
2024/01/21 11:36:32;;;;;;;22.93;20.83;;;3.60;99.90;;;;;;5040820;28;20199;-78
2024/01/21 11:39:00;;;;;;;20.07;18.17;;;3.60;99.90;;;;;;5041167;28;20734;-78
2024/01/21 11:41:37;;;;;;;23.70;21.53;;;3.70;99.90;;;;;;5037410;28;20232;-78
2024/01/21 11:44:15;;;;;;;23.73;21.57;;;3.70;99.90;;;;;;5038346;28;20199;-79
2024/01/21 11:46:42;;;;;;;23.33;20.97;;;3.40;99.90;;;;;;5051681;28;20201;-78
2024/01/21 11:49:11;;;;;;;22.33;20.27;;;3.30;99.90;;;;;;5037543;28;20224;-79
2024/01/21 11:51:38;;;;;;;23.00;20.93;;;3.20;99.90;;;;;;5039857;28;20257;-78
2024/01/21 11:54:05;;;;;;;21.80;19.90;;;3.10;99.90;;;;;;5043246;28;20200;-77
2024/01/21 11:56:32;;;;;;;22.77;20.50;;;3.00;99.90;;;;;;5045446;28;20203;-78
2024/01/21 11:58:59;;;;;;;21.80;19.80;;;3.00;99.90;;;;;;5047419;28;20216;-79
2024/01/21 12:01:27;;;;;;;22.23;20.10;;;3.00;99.90;;;;;;5037217;28;20745;-81
2024/01/21 12:03:54;;;;;;;21.03;19.13;;;3.00;99.90;;;;;;5033719;28;20207;-81
2024/01/21 12:06:24;;;;;;;22.10;20.10;;;2.90;99.90;;;;;;5041154;28;20204;-81
2024/01/21 12:08:51;;;;;;;24.70;22.00;;;2.90;99.90;;;;;;5039701;28;20278;-81
2024/01/21 12:11:18;;;;;;;25.90;23.13;;;2.90;99.90;;;;;;5039752;28;20579;-82
2024/01/21 12:13:45;;;;;;;26.07;23.43;;;2.90;99.90;;;;;;5044631;28;20214;-81
2024/01/21 12:16:12;;;;;;;23.90;21.47;;;2.90;99.90;;;;;;5044687;28;20676;-80
2024/01/21 12:18:40;;;;;;;22.00;19.80;;;2.80;99.90;;;;;;5044819;28;20223;-80
2024/01/21 12:21:07;;;;;;;21.93;19.73;;;2.80;99.90;;;;;;5042880;28;20215;-80
2024/01/21 12:23:35;;;;;;;24.40;22.13;;;2.70;99.90;;;;;;5046635;28;20254;-80
2024/01/21 12:26:03;;;;;;;25.10;22.70;;;2.50;99.90;;;;;;5041888;28;20693;-81
2024/01/21 12:28:30;;;;;;;23.97;21.67;;;2.40;99.90;;;;;;5049170;28;20226;-80